Check out our new BloomSky Weather System.

Active alerts

Houston, TX
  Details for Houston, TX Dense Fog Advisory


Thunder radar  blitzortung!


Rain radar more information rain snow radar


Visit our other weather sites:

Template documentation
and downloads

And another site



Weather Underground History page Text

Daily Summary for August 7, 2017 Units:  English    Metric   Both
« Previous Day
Next Day »
Daily Weekly Monthly Yearly Custom
  High: Low: Average:
Temperature: 83.5 °F 75.6 °F 79.4 °F
Dew Point: 80.6 °F 74.7 °F 77.4 °F
Humidity: 99 % 86 % 94 %
Wind Speed: 10.0 mph 0.0 mph 1.4 mph
Wind Gust: 26.0 mph - -
Wind:- - South
Pressure: 29.96 in 29.85 in -
Precipitation: 0.90 in    
Historical Graphs
 
 
Tabular Data for August 7, 2017
Time Temperature Dew Point Pressure Wind Wind Speed Wind Gust Humidity Rainfall Rate (Hourly)
00:00 83.5 °F 80.2 °F 29.88 in South 3.0 mph 7.0 mph 90 % 0.00 in
00:05 83.5 °F 80.2 °F 29.88 in South 2.0 mph 7.0 mph 90 % 0.00 in
00:10 83.3 °F 80.1 °F 29.88 in South 2.0 mph 7.0 mph 90 % 0.00 in
00:15 83.3 °F 80.1 °F 29.88 in South 3.0 mph 6.0 mph 90 % 0.00 in
00:20 83.1 °F 79.9 °F 29.88 in South 1.0 mph 6.0 mph 90 % 0.00 in
00:25 83.1 °F 79.9 °F 29.88 in ESE 3.0 mph 6.0 mph 90 % 0.00 in
00:30 83.1 °F 80.2 °F 29.88 in South 2.0 mph 6.0 mph 91 % 0.00 in
00:35 83.1 °F 80.2 °F 29.87 in SSW 4.0 mph 6.0 mph 91 % 0.00 in
00:40 83.1 °F 80.2 °F 29.87 in SSW 4.0 mph 6.0 mph 91 % 0.00 in
00:45 83.1 °F 80.2 °F 29.87 in SSE 5.0 mph 6.0 mph 91 % 0.00 in
00:50 83.1 °F 80.2 °F 29.87 in SSE 5.0 mph 7.0 mph 91 % 0.00 in
00:55 83.1 °F 80.2 °F 29.87 in SSW 2.0 mph 7.0 mph 91 % 0.00 in
01:01 83.1 °F 80.2 °F 29.87 in SSW 2.0 mph 7.0 mph 91 % 0.00 in
01:06 83.1 °F 80.2 °F 29.87 in South 3.0 mph 6.0 mph 91 % 0.00 in
01:11 83.1 °F 80.2 °F 29.87 in SSW 7.0 mph 7.0 mph 91 % 0.00 in
01:16 83.1 °F 80.2 °F 29.87 in South 6.0 mph 8.0 mph 91 % 0.00 in
01:21 83.1 °F 80.2 °F 29.87 in South 6.0 mph 8.0 mph 91 % 0.00 in
01:26 83.1 °F 80.2 °F 29.87 in SSW 1.0 mph 8.0 mph 91 % 0.00 in
01:31 82.9 °F 80.1 °F 29.87 in SE 3.0 mph 8.0 mph 91 % 0.00 in
01:36 82.9 °F 80.1 °F 29.87 in South 4.0 mph 8.0 mph 91 % 0.00 in
01:41 82.9 °F 80.1 °F 29.86 in SSE 6.0 mph 8.0 mph 91 % 0.00 in
01:46 82.9 °F 80.1 °F 29.86 in SE 5.0 mph 8.0 mph 91 % 0.00 in
01:47 82.9 °F 80.1 °F 29.86 in South 5.0 mph 8.0 mph 91 % 0.00 in
01:52 82.9 °F 80.1 °F 29.86 in SE 2.0 mph 9.0 mph 91 % 0.00 in
01:57 82.9 °F 80.1 °F 29.86 in South 2.0 mph 9.0 mph 91 % 0.00 in
02:02 82.9 °F 80.1 °F 29.86 in SSW 7.0 mph 9.0 mph 91 % 0.00 in
02:07 82.9 °F 80.1 °F 29.86 in SSE 5.0 mph 9.0 mph 91 % 0.00 in
02:12 82.9 °F 80.1 °F 29.86 in SE 6.0 mph 10.0 mph 91 % 0.00 in
02:17 82.9 °F 80.4 °F 29.86 in SSW 3.0 mph 10.0 mph 92 % 0.00 in
02:22 82.9 °F 80.4 °F 29.86 in SSE 4.0 mph 10.0 mph 92 % 0.00 in
02:27 82.9 °F 80.4 °F 29.86 in SSE 2.0 mph 9.0 mph 92 % 0.00 in
02:32 82.9 °F 80.4 °F 29.86 in SSE 5.0 mph 10.0 mph 92 % 0.00 in
02:37 82.9 °F 80.4 °F 29.86 in SSE 2.0 mph 10.0 mph 92 % 0.00 in
02:42 82.9 °F 80.4 °F 29.86 in SSE 4.0 mph 10.0 mph 92 % 0.00 in
02:47 82.9 °F 80.4 °F 29.86 in SE 6.0 mph 9.0 mph 92 % 0.00 in
02:57 82.8 °F 80.2 °F 29.87 in SSW 4.0 mph 8.0 mph 92 % 0.00 in
03:03 82.8 °F 80.2 °F 29.86 in SE 3.0 mph 8.0 mph 92 % 0.00 in
03:08 82.8 °F 80.2 °F 29.86 in SSE 2.0 mph 8.0 mph 92 % 0.00 in
03:13 82.8 °F 80.2 °F 29.86 in South 5.0 mph 8.0 mph 92 % 0.00 in
03:18 82.8 °F 80.2 °F 29.87 in SSE 4.0 mph 8.0 mph 92 % 0.00 in
03:23 82.9 °F 80.4 °F 29.87 in SSE 4.0 mph 7.0 mph 92 % 0.00 in
03:28 82.9 °F 80.4 °F 29.87 in SSW 2.0 mph 9.0 mph 92 % 0.00 in
03:33 82.9 °F 80.4 °F 29.87 in SE 4.0 mph 9.0 mph 92 % 0.00 in
03:38 82.9 °F 80.4 °F 29.88 in SSW 3.0 mph 9.0 mph 92 % 0.00 in
03:43 82.9 °F 80.4 °F 29.88 in South 3.0 mph 9.0 mph 92 % 0.00 in
03:53 83.1 °F 80.6 °F 29.88 in SSW 2.0 mph 8.0 mph 92 % 0.00 in
03:58 82.9 °F 80.4 °F 29.88 in SE 3.0 mph 8.0 mph 92 % 0.00 in
04:03 83.1 °F 80.6 °F 29.88 in ESE 4.0 mph 8.0 mph 92 % 0.00 in
04:08 83.1 °F 80.6 °F 29.88 in South 1.0 mph 7.0 mph 92 % 0.00 in
04:13 82.9 °F 80.4 °F 29.88 in SSE 1.0 mph 6.0 mph 92 % 0.00 in
04:18 82.9 °F 80.4 °F 29.88 in SSE 2.0 mph 6.0 mph 92 % 0.00 in
04:23 82.9 °F 80.4 °F 29.88 in SE 1.0 mph 6.0 mph 92 % 0.00 in
04:28 82.9 °F 80.4 °F 29.88 in SSE 1.0 mph 5.0 mph 92 % 0.00 in
04:33 82.9 °F 80.4 °F 29.88 in SSW 2.0 mph 5.0 mph 92 % 0.00 in
04:38 82.9 °F 80.4 °F 29.87 in SSE 3.0 mph 5.0 mph 92 % 0.00 in
04:43 82.9 °F 80.4 °F 29.87 in SSE 2.0 mph 4.0 mph 92 % 0.00 in
04:48 82.9 °F 80.4 °F 29.87 in SE 3.0 mph 5.0 mph 92 % 0.00 in
04:53 82.9 °F 80.4 °F 29.87 in ESE 2.0 mph 7.0 mph 92 % 0.00 in
04:58 82.9 °F 80.4 °F 29.87 in SE 3.0 mph 7.0 mph 92 % 0.00 in
05:03 82.9 °F 80.4 °F 29.86 in SE 1.0 mph 7.0 mph 92 % 0.00 in
05:08 82.9 °F 80.4 °F 29.86 in SE 1.0 mph 4.0 mph 92 % 0.00 in
05:13 82.9 °F 80.4 °F 29.86 in SSE 4.0 mph 5.0 mph 92 % 0.00 in
05:18 82.8 °F 80.2 °F 29.86 in ESE 2.0 mph 5.0 mph 92 % 0.00 in
05:23 82.8 °F 80.6 °F 29.86 in SE 3.0 mph 6.0 mph 93 % 0.00 in
05:28 82.8 °F 80.6 °F 29.86 in SSW 2.0 mph 6.0 mph 93 % 0.00 in
05:33 82.8 °F 80.6 °F 29.86 in SSE 1.0 mph 6.0 mph 93 % 0.00 in
05:38 82.8 °F 80.6 °F 29.86 in Calm   5.0 mph 93 % 0.00 in
05:43 82.8 °F 80.6 °F 29.87 in Calm   3.0 mph 93 % 0.00 in
05:48 82.6 °F 80.4 °F 29.87 in Calm   2.0 mph 93 % 0.00 in
05:53 82.6 °F 80.4 °F 29.86 in Calm   2.0 mph 93 % 0.00 in
05:58 82.4 °F 80.2 °F 29.87 in Calm   2.0 mph 93 % 0.00 in
06:03 82.2 °F 80.2 °F 29.87 in SSW 1.0 mph 2.0 mph 94 % 0.00 in
06:09 82.2 °F 80.2 °F 29.87 in SSE 1.0 mph 2.0 mph 94 % 0.00 in
06:14 82.2 °F 80.2 °F 29.87 in SE 1.0 mph 2.0 mph 94 % 0.00 in
06:19 82.0 °F 80.1 °F 29.88 in Calm   2.0 mph 94 % 0.00 in
06:24 82.0 °F 80.1 °F 29.88 in South 1.0 mph 2.0 mph 94 % 0.00 in
06:29 82.0 °F 80.1 °F 29.88 in SSE 2.0 mph 2.0 mph 94 % 0.00 in
06:34 82.0 °F 80.1 °F 29.88 in Calm   2.0 mph 94 % 0.00 in
06:35 82.0 °F 80.1 °F 29.88 in Calm   2.0 mph 94 % 0.00 in
06:39 81.9 °F 79.9 °F 29.88 in SSE 1.0 mph 2.0 mph 94 % 0.00 in
06:44 81.9 °F 79.9 °F 29.88 in SSE 2.0 mph 2.0 mph 94 % 0.00 in
06:49 81.9 °F 80.2 °F 29.87 in SE 1.0 mph 2.0 mph 95 % 0.00 in
06:54 81.9 °F 80.2 °F 29.87 in Calm   2.0 mph 95 % 0.00 in
06:59 81.9 °F 80.2 °F 29.88 in Calm   2.0 mph 95 % 0.00 in
07:04 81.9 °F 80.2 °F 29.88 in Calm   2.0 mph 95 % 0.00 in
07:10 81.9 °F 80.2 °F 29.88 in Calm   2.0 mph 95 % 0.00 in
07:15 81.9 °F 80.2 °F 29.88 in Calm   2.0 mph 95 % 0.00 in
07:20 81.5 °F 78.3 °F 29.89 in NW 8.0 mph 8.0 mph 90 % 0.00 in
07:21 80.8 °F 77.2 °F 29.89 in WNW 5.0 mph 13.0 mph 89 % 0.00 in
07:26 79.9 °F 76.6 °F 29.89 in WNW 4.0 mph 13.0 mph 90 % 0.00 in
07:31 79.5 °F 76.3 °F 29.89 in NW 1.0 mph 13.0 mph 90 % 0.00 in
07:36 79.2 °F 75.9 °F 29.90 in Calm   10.0 mph 90 % 0.00 in
07:41 79.0 °F 75.7 °F 29.90 in Calm   8.0 mph 90 % 0.00 in
07:46 79.0 °F 76.1 °F 29.90 in West 4.0 mph 7.0 mph 91 % 0.00 in
07:51 78.6 °F 75.7 °F 29.90 in WNW 3.0 mph 7.0 mph 91 % 0.00 in
07:56 78.4 °F 75.9 °F 29.89 in Calm   7.0 mph 92 % 0.00 in
08:01 78.3 °F 75.7 °F 29.89 in Calm   7.0 mph 92 % 0.02 in
08:06 77.7 °F 75.6 °F 29.89 in SE 1.0 mph 6.0 mph 93 % 0.04 in
08:07 77.7 °F 75.6 °F 29.89 in East 1.0 mph 6.0 mph 93 % 0.04 in
08:12 77.5 °F 75.7 °F 29.89 in Calm   6.0 mph 94 % 0.08 in
08:17 77.4 °F 75.6 °F 29.90 in Calm   6.0 mph 94 % 0.10 in
08:22 77.4 °F 75.6 °F 29.90 in Calm   4.0 mph 94 % 0.10 in
08:27 77.2 °F 75.6 °F 29.91 in Calm   2.0 mph 95 % 0.14 in
08:28 77.2 °F 75.6 °F 29.91 in Calm   2.0 mph 95 % 0.14 in
08:33 76.8 °F 75.2 °F 29.91 in Calm   3.0 mph 95 % 0.28 in
08:38 76.6 °F 75.0 °F 29.91 in Calm   4.0 mph 95 % 0.36 in
08:43 76.5 °F 75.2 °F 29.91 in SE 1.0 mph 4.0 mph 96 % 0.45 in
08:45 76.5 °F 75.2 °F 29.91 in Calm   4.0 mph 96 % 0.48 in
08:50 76.3 °F 75.0 °F 29.91 in Calm   4.0 mph 96 % 0.49 in
08:55 76.3 °F 75.0 °F 29.90 in Calm   4.0 mph 96 % 0.48 in
09:00 76.3 °F 75.4 °F 29.90 in Calm   2.0 mph 97 % 0.47 in
09:05 76.5 °F 75.6 °F 29.90 in Calm   2.0 mph 97 % 0.46 in
09:10 76.5 °F 75.6 °F 29.91 in WSW 1.0 mph 2.0 mph 97 % 0.42 in
09:15 76.6 °F 75.7 °F 29.91 in Calm   2.0 mph 97 % 0.40 in
09:20 76.6 °F 75.7 °F 29.91 in Calm   2.0 mph 97 % 0.40 in
09:25 76.8 °F 75.9 °F 29.91 in Calm   1.0 mph 97 % 0.36 in
09:30 76.8 °F 75.9 °F 29.92 in Calm   1.0 mph 97 % 0.22 in
09:35 77.0 °F 76.1 °F 29.92 in SSE 1.0 mph 1.0 mph 97 % 0.15 in
09:40 76.8 °F 75.9 °F 29.92 in Calm   3.0 mph 97 % 0.06 in
09:45 76.8 °F 75.9 °F 29.93 in Calm   3.0 mph 97 % 0.06 in
09:50 76.8 °F 75.9 °F 29.92 in Calm   3.0 mph 97 % 0.05 in
09:55 76.8 °F 75.9 °F 29.93 in SSW 2.0 mph 5.0 mph 97 % 0.09 in
10:00 76.6 °F 75.7 °F 29.93 in SSE 3.0 mph 7.0 mph 97 % 0.09 in
10:05 76.3 °F 75.0 °F 29.92 in SSE 3.0 mph 7.0 mph 96 % 0.11 in
10:10 75.7 °F 74.8 °F 29.92 in Calm   7.0 mph 97 % 0.11 in
10:15 75.7 °F 74.8 °F 29.92 in Calm   6.0 mph 97 % 0.12 in
10:20 75.6 °F 74.7 °F 29.92 in Calm   6.0 mph 97 % 0.12 in
10:25 75.6 °F 74.7 °F 29.92 in NW 1.0 mph 2.0 mph 97 % 0.12 in
10:30 75.7 °F 74.8 °F 29.92 in NW 2.0 mph 2.0 mph 97 % 0.12 in
10:35 75.7 °F 75.2 °F 29.92 in NW 3.0 mph 4.0 mph 98 % 0.11 in
10:40 75.9 °F 75.4 °F 29.92 in East 1.0 mph 4.0 mph 98 % 0.10 in
10:45 75.9 °F 75.4 °F 29.92 in WNW 1.0 mph 4.0 mph 98 % 0.09 in
10:50 76.1 °F 75.6 °F 29.92 in East 2.0 mph 4.0 mph 98 % 0.08 in
10:55 76.3 °F 75.7 °F 29.91 in Calm   3.0 mph 98 % 0.05 in
11:00 76.5 °F 75.9 °F 29.91 in Calm   3.0 mph 98 % 0.04 in
11:05 76.6 °F 76.1 °F 29.91 in WNW 1.0 mph 3.0 mph 98 % 0.02 in
11:10 76.8 °F 76.3 °F 29.92 in Calm   2.0 mph 98 % 0.02 in
11:15 77.4 °F 77.0 °F 29.91 in Calm   2.0 mph 99 % 0.01 in
11:21 77.7 °F 77.4 °F 29.91 in ENE 1.0 mph 2.0 mph 99 % 0.01 in
11:26 77.9 °F 77.4 °F 29.91 in NW 3.0 mph 3.0 mph 98 % 0.01 in
11:31 77.9 °F 77.4 °F 29.91 in Calm   3.0 mph 98 % 0.01 in
11:36 77.7 °F 77.2 °F 29.91 in ENE 3.0 mph 3.0 mph 98 % 0.01 in
11:41 78.1 °F 77.5 °F 29.92 in Calm   4.0 mph 98 % 0.01 in
11:46 78.4 °F 77.9 °F 29.92 in NNW 1.0 mph 4.0 mph 98 % 0.00 in
11:51 78.6 °F 78.1 °F 29.92 in North 1.0 mph 4.0 mph 98 % 0.00 in
11:56 79.0 °F 78.4 °F 29.91 in NW 2.0 mph 3.0 mph 98 % 0.00 in
12:01 79.3 °F 78.8 °F 29.91 in SE 1.0 mph 4.0 mph 98 % 0.00 in
12:06 79.9 °F 79.3 °F 29.91 in ESE 2.0 mph 4.0 mph 98 % 0.00 in
12:07 80.1 °F 79.5 °F 29.91 in Calm   4.0 mph 98 % 0.00 in
12:12 80.2 °F 79.3 °F 29.92 in ESE 2.0 mph 4.0 mph 97 % 0.00 in
12:17 80.4 °F 79.2 °F 29.95 in East 10.0 mph 10.0 mph 96 % 0.01 in
12:22 79.0 °F 76.8 °F 29.93 in SSE 5.0 mph 26.0 mph 93 % 0.17 in
12:27 77.7 °F 76.1 °F 29.93 in ESE 5.0 mph 26.0 mph 95 % 0.20 in
12:32 77.4 °F 76.1 °F 29.93 in SE 2.0 mph 26.0 mph 96 % 0.20 in
12:37 77.4 °F 76.5 °F 29.93 in ESE 2.0 mph 16.0 mph 97 % 0.20 in
12:42 77.4 °F 76.8 °F 29.93 in ESE 1.0 mph 9.0 mph 98 % 0.20 in
12:47 77.2 °F 76.6 °F 29.93 in SE 3.0 mph 5.0 mph 98 % 0.20 in
12:52 76.8 °F 76.3 °F 29.93 in ESE 3.0 mph 6.0 mph 98 % 0.21 in
12:57 76.8 °F 76.3 °F 29.94 in South 3.0 mph 6.0 mph 98 % 0.22 in
13:02 76.5 °F 75.6 °F 29.94 in South 3.0 mph 6.0 mph 97 % 0.22 in
13:07 76.1 °F 75.6 °F 29.94 in SSW 4.0 mph 7.0 mph 98 % 0.22 in
13:12 75.9 °F 75.4 °F 29.95 in SSW 3.0 mph 7.0 mph 98 % 0.23 in
13:17 75.9 °F 75.4 °F 29.94 in SSW 4.0 mph 7.0 mph 98 % 0.22 in
13:22 75.7 °F 75.2 °F 29.94 in South 4.0 mph 7.0 mph 98 % 0.06 in
13:27 75.7 °F 75.2 °F 29.94 in SSE 3.0 mph 7.0 mph 98 % 0.04 in
13:32 75.7 °F 75.2 °F 29.94 in SSW 5.0 mph 7.0 mph 98 % 0.04 in
13:37 75.7 °F 75.2 °F 29.94 in South 1.0 mph 6.0 mph 98 % 0.04 in
13:47 75.7 °F 75.2 °F 29.94 in SSW 1.0 mph 6.0 mph 98 % 0.05 in
13:51 75.7 °F 75.2 °F 29.94 in SSE 4.0 mph 5.0 mph 98 % 0.04 in
13:56 75.7 °F 75.4 °F 29.94 in South 1.0 mph 5.0 mph 99 % 0.03 in
14:01 75.9 °F 75.6 °F 29.94 in SSE 1.0 mph 5.0 mph 99 % 0.03 in
14:06 75.7 °F 75.2 °F 29.94 in Calm   5.0 mph 98 % 0.03 in
14:11 75.7 °F 75.4 °F 29.94 in Calm   5.0 mph 99 % 0.02 in
14:16 75.7 °F 75.2 °F 29.93 in SSW 3.0 mph 6.0 mph 98 % 0.02 in
14:21 75.7 °F 75.4 °F 29.94 in SW 3.0 mph 7.0 mph 99 % 0.01 in
14:26 75.9 °F 75.6 °F 29.94 in South 3.0 mph 7.0 mph 99 % 0.01 in
14:31 75.9 °F 75.6 °F 29.94 in Calm   7.0 mph 99 % 0.01 in
14:36 75.9 °F 75.6 °F 29.94 in SSE 1.0 mph 6.0 mph 99 % 0.01 in
14:41 75.9 °F 75.6 °F 29.94 in SSE 1.0 mph 4.0 mph 99 % 0.00 in
14:46 75.9 °F 75.6 °F 29.94 in Calm   4.0 mph 99 % 0.00 in
14:56 75.9 °F 75.4 °F 29.94 in Calm   4.0 mph 98 % 0.00 in
15:01 76.1 °F 75.7 °F 29.94 in South 4.0 mph 4.0 mph 99 % 0.00 in
15:06 76.3 °F 75.9 °F 29.93 in SSE 1.0 mph 5.0 mph 99 % 0.00 in
15:11 76.5 °F 75.9 °F 29.93 in Calm   5.0 mph 98 % 0.00 in
15:16 76.8 °F 76.5 °F 29.92 in Calm   5.0 mph 99 % 0.00 in
15:21 77.5 °F 77.2 °F 29.92 in Calm   3.0 mph 99 % 0.00 in
15:26 77.4 °F 76.8 °F 29.92 in Calm   3.0 mph 98 % 0.00 in
15:36 77.7 °F 77.2 °F 29.91 in Calm   3.0 mph 98 % 0.00 in
15:41 77.4 °F 76.5 °F 29.90 in Calm   2.0 mph 97 % 0.00 in
15:46 77.7 °F 77.2 °F 29.90 in Calm   2.0 mph 98 % 0.00 in
15:51 77.7 °F 76.8 °F 29.89 in Calm   2.0 mph 97 % 0.00 in
15:56 77.9 °F 77.0 °F 29.89 in South 2.0 mph 2.0 mph 97 % 0.00 in
16:01 78.1 °F 77.2 °F 29.89 in Calm   2.0 mph 97 % 0.00 in
16:03 78.1 °F 77.2 °F 29.90 in Calm   2.0 mph 97 % 0.00 in
16:08 78.4 °F 77.5 °F 29.90 in Calm   2.0 mph 97 % 0.00 in
16:13 78.3 °F 76.6 °F 29.90 in Calm   2.0 mph 95 % 0.00 in
16:18 78.3 °F 76.6 °F 29.89 in Calm   2.0 mph 95 % 0.00 in
16:23 78.3 °F 76.6 °F 29.89 in Calm   2.0 mph 95 % 0.00 in
16:28 78.3 °F 76.5 °F 29.89 in Calm   2.0 mph 94 % 0.00 in
16:33 78.4 °F 76.8 °F 29.88 in Calm   2.0 mph 95 % 0.00 in
16:38 78.8 °F 77.0 °F 29.88 in Calm   1.0 mph 94 % 0.00 in
16:48 79.0 °F 76.1 °F 29.88 in Calm   2.0 mph 91 % 0.00 in
16:53 79.2 °F 76.6 °F 29.88 in NW 1.0 mph 2.0 mph 92 % 0.00 in
16:58 79.2 °F 76.3 °F 29.88 in Calm   1.0 mph 91 % 0.00 in
17:03 79.5 °F 76.6 °F 29.88 in Calm   1.0 mph 91 % 0.00 in
17:08 79.7 °F 76.5 °F 29.88 in Calm   1.0 mph 90 % 0.00 in
17:13 80.1 °F 76.8 °F 29.88 in Calm   1.0 mph 90 % 0.00 in
17:18 79.9 °F 76.3 °F 29.88 in Calm   1.0 mph 89 % 0.00 in
17:23 80.1 °F 76.5 °F 29.87 in Calm   1.0 mph 89 % 0.00 in
17:28 80.2 °F 76.3 °F 29.87 in Calm   1.0 mph 88 % 0.00 in
17:33 80.4 °F 76.5 °F 29.87 in Calm   1.0 mph 88 % 0.00 in
17:38 80.8 °F 76.5 °F 29.87 in Calm   1.0 mph 87 % 0.00 in
17:43 80.8 °F 76.5 °F 29.87 in Calm     87 % 0.00 in
17:48 81.0 °F 76.6 °F 29.87 in Calm     87 % 0.00 in
17:53 81.0 °F 76.5 °F 29.87 in SE 1.0 mph   86 % 0.00 in
17:58 81.0 °F 76.6 °F 29.87 in Calm   1.0 mph 87 % 0.00 in
18:03 80.8 °F 76.5 °F 29.87 in East 1.0 mph 2.0 mph 87 % 0.00 in
18:04 80.8 °F 76.3 °F 29.87 in ENE 2.0 mph 2.0 mph 86 % 0.00 in
18:09 80.8 °F 76.5 °F 29.87 in Calm   3.0 mph 87 % 0.00 in
18:14 80.8 °F 76.5 °F 29.86 in Calm   3.0 mph 87 % 0.00 in
18:19 80.8 °F 76.5 °F 29.86 in Calm   3.0 mph 87 % 0.00 in
18:24 80.8 °F 76.5 °F 29.86 in Calm   2.0 mph 87 % 0.00 in
18:29 80.8 °F 76.5 °F 29.86 in Calm   2.0 mph 87 % 0.00 in
18:34 80.8 °F 76.5 °F 29.86 in South 1.0 mph 1.0 mph 87 % 0.00 in
18:39 80.8 °F 76.5 °F 29.86 in SSE 1.0 mph 1.0 mph 87 % 0.00 in
18:44 80.4 °F 76.5 °F 29.86 in South 1.0 mph 2.0 mph 88 % 0.00 in
18:49 80.4 °F 76.5 °F 29.85 in Calm   2.0 mph 88 % 0.00 in
18:51 80.4 °F 76.5 °F 29.86 in Calm   2.0 mph 88 % 0.00 in
18:56 80.4 °F 76.5 °F 29.86 in Calm   2.0 mph 88 % 0.00 in
19:01 80.6 °F 76.6 °F 29.86 in Calm   2.0 mph 88 % 0.00 in
19:06 80.8 °F 76.8 °F 29.86 in Calm     88 % 0.00 in
19:11 80.8 °F 76.8 °F 29.86 in Calm   1.0 mph 88 % 0.00 in
19:16 80.6 °F 76.6 °F 29.87 in Calm   1.0 mph 88 % 0.00 in
19:21 80.4 °F 76.5 °F 29.87 in Calm   1.0 mph 88 % 0.00 in
19:26 80.2 °F 76.6 °F 29.87 in Calm   1.0 mph 89 % 0.00 in
19:31 79.9 °F 76.3 °F 29.87 in Calm   2.0 mph 89 % 0.00 in
19:36 79.9 °F 76.3 °F 29.87 in Calm   2.0 mph 89 % 0.00 in
19:41 79.7 °F 76.1 °F 29.88 in Calm   2.0 mph 89 % 0.00 in
19:46 79.5 °F 76.3 °F 29.87 in Calm   1.0 mph 90 % 0.00 in
19:51 79.5 °F 76.3 °F 29.88 in Calm   1.0 mph 90 % 0.00 in
19:56 79.3 °F 76.1 °F 29.88 in Calm   1.0 mph 90 % 0.00 in
20:01 79.2 °F 76.3 °F 29.88 in Calm   1.0 mph 91 % 0.00 in
20:06 79.2 °F 76.3 °F 29.88 in Calm   1.0 mph 91 % 0.00 in
20:12 79.0 °F 76.1 °F 29.88 in Calm   1.0 mph 91 % 0.00 in
20:17 78.8 °F 75.9 °F 29.88 in Calm   1.0 mph 91 % 0.00 in
20:22 78.8 °F 76.3 °F 29.88 in Calm   1.0 mph 92 % 0.00 in
20:27 78.6 °F 76.1 °F 29.88 in Calm   1.0 mph 92 % 0.00 in
20:32 78.6 °F 76.1 °F 29.89 in ESE 1.0 mph 1.0 mph 92 % 0.00 in
20:37 78.6 °F 76.1 °F 29.89 in Calm   2.0 mph 92 % 0.00 in
20:42 78.6 °F 76.1 °F 29.89 in Calm   2.0 mph 92 % 0.00 in
20:47 78.6 °F 76.5 °F 29.89 in Calm   2.0 mph 93 % 0.00 in
20:52 78.6 °F 76.5 °F 29.89 in ESE 1.0 mph 2.0 mph 93 % 0.00 in
20:57 78.4 °F 76.3 °F 29.89 in SE 2.0 mph 2.0 mph 93 % 0.00 in
21:02 78.4 °F 76.3 °F 29.89 in Calm   4.0 mph 93 % 0.00 in
21:07 78.4 °F 76.3 °F 29.90 in Calm   4.0 mph 93 % 0.00 in
21:12 78.4 °F 76.3 °F 29.90 in Calm   4.0 mph 93 % 0.00 in
21:17 78.4 °F 76.6 °F 29.90 in SE 1.0 mph 2.0 mph 94 % 0.00 in
21:22 78.3 °F 76.5 °F 29.90 in Calm   3.0 mph 94 % 0.00 in
21:27 78.3 °F 76.5 °F 29.91 in Calm   3.0 mph 94 % 0.00 in
21:32 78.3 °F 76.5 °F 29.91 in ESE 1.0 mph 3.0 mph 94 % 0.00 in
21:37 78.3 °F 76.5 °F 29.91 in SE 1.0 mph 3.0 mph 94 % 0.00 in
21:42 78.1 °F 76.3 °F 29.91 in ESE 1.0 mph 5.0 mph 94 % 0.00 in
21:47 78.1 °F 76.3 °F 29.91 in East 1.0 mph 5.0 mph 94 % 0.00 in
21:52 78.1 °F 76.3 °F 29.91 in Calm   5.0 mph 94 % 0.00 in
21:57 77.9 °F 76.1 °F 29.90 in SE 1.0 mph 3.0 mph 94 % 0.00 in
22:02 77.9 °F 76.3 °F 29.91 in SE 1.0 mph 3.0 mph 95 % 0.00 in
22:07 77.7 °F 76.1 °F 29.91 in East 1.0 mph 3.0 mph 95 % 0.00 in
22:12 77.7 °F 76.1 °F 29.91 in Calm   3.0 mph 95 % 0.00 in
22:18 77.7 °F 76.1 °F 29.92 in Calm   3.0 mph 95 % 0.00 in
22:23 77.7 °F 76.1 °F 29.92 in Calm   3.0 mph 95 % 0.00 in
22:24 77.7 °F 76.1 °F 29.92 in NW 1.0 mph 3.0 mph 95 % 0.00 in
22:28 77.7 °F 76.1 °F 29.92 in Calm   2.0 mph 95 % 0.00 in
22:29 77.7 °F 76.1 °F 29.92 in Calm   2.0 mph 95 % 0.00 in
22:32 77.7 °F 76.1 °F 29.92 in Calm   2.0 mph 95 % 0.00 in
22:37 77.7 °F 76.1 °F 29.92 in East 1.0 mph 2.0 mph 95 % 0.00 in
22:42 77.7 °F 76.1 °F 29.92 in Calm   2.0 mph 95 % 0.00 in
22:44 77.7 °F 76.1 °F 29.92 in East 2.0 mph 2.0 mph 95 % 0.00 in
22:49 77.7 °F 76.1 °F 29.92 in Calm   3.0 mph 95 % 0.00 in
22:54 77.7 °F 76.1 °F 29.93 in Calm   3.0 mph 95 % 0.00 in
22:59 77.7 °F 76.1 °F 29.93 in Calm   3.0 mph 95 % 0.00 in
23:04 77.7 °F 76.1 °F 29.93 in Calm   4.0 mph 95 % 0.00 in
23:09 77.7 °F 76.1 °F 29.93 in Calm   4.0 mph 95 % 0.00 in
23:14 77.7 °F 76.1 °F 29.92 in Calm   4.0 mph 95 % 0.00 in
23:19 77.7 °F 76.1 °F 29.92 in North 3.0 mph 5.0 mph 95 % 0.00 in
23:24 77.7 °F 76.5 °F 29.92 in North 4.0 mph 5.0 mph 96 % 0.00 in
23:29 77.7 °F 76.5 °F 29.92 in NW 2.0 mph 5.0 mph 96 % 0.00 in
23:34 77.7 °F 76.5 °F 29.92 in NW 3.0 mph 4.0 mph 96 % 0.00 in
23:39 77.7 °F 76.5 °F 29.92 in NW 1.0 mph 4.0 mph 96 % 0.00 in
23:44 77.7 °F 76.5 °F 29.93 in ENE 2.0 mph 4.0 mph 96 % 0.01 in
23:49 77.5 °F 76.3 °F 29.94 in Calm   4.0 mph 96 % 0.01 in
23:54 77.5 °F 76.3 °F 29.95 in WSW 1.0 mph 4.0 mph 96 % 0.01 in
23:59 77.0 °F 75.2 °F 29.96 in NW 4.0 mph 4.0 mph 94 % 0.02 in
Spring, Texas: Villages of Bridgestone
Compliments of Weather Underground - 2.75 mb

Script developed by  Jim McMurry - jmcmurry@mwt.net Adapted for the template by  Wim van der Kuil - Leuven-Template.eu

You find our weather info also at:

UK Metoffice

WeatherCloud

Weather Underground

Mid-South Weather Network

AWEKAS

Citizen Weather Observer Program (CWOP)

HAMweather, WeatherForYou, PWS Weather

Equipment we use:

Weather-station
Davis Vantage Vue

Weather-program
Meteohub

Weather-server
Debian 7.9 x86 (Guest)

Provider
DreamHost

Davis Vantage Vue

Meteohub

Debian 7.9 x86 (Guest)

DreamHost